createdAt,value
2022-09-25T00:01:11.536Z,10.50
2022-09-25T00:07:19.261Z,9.77
2022-09-25T00:13:26.185Z,9.27
2022-09-25T00:19:34.674Z,8.83
2022-09-25T00:25:41.767Z,9.00
2022-09-25T00:31:49.206Z,9.33
2022-09-25T00:37:56.526Z,10.57
2022-09-25T00:44:03.698Z,8.23
2022-09-25T00:50:10.559Z,8.37
2022-09-25T00:56:18.102Z,8.00
2022-09-25T01:02:25.488Z,8.50
2022-09-25T01:08:33.364Z,8.00
2022-09-25T01:14:40.734Z,9.33
2022-09-25T01:20:10.749Z,7.90
2022-09-25T01:25:35.367Z,8.50
2022-09-25T01:30:30.815Z,8.10
2022-09-25T01:35:31.587Z,8.57
2022-09-25T01:40:35.374Z,7.83
2022-09-25T01:45:43.257Z,8.90
2022-09-25T01:51:02.712Z,8.27
2022-09-25T01:56:04.700Z,9.27
2022-09-25T02:01:12.463Z,8.43
2022-09-25T02:06:10.205Z,8.40
2022-09-25T02:11:05.912Z,13.57
2022-09-25T02:16:03.039Z,9.23
2022-09-25T02:21:08.459Z,8.13
2022-09-25T02:26:06.125Z,8.43
2022-09-25T02:31:00.112Z,7.70
2022-09-25T02:35:53.539Z,8.47
2022-09-25T02:41:15.043Z,9.03
2022-09-25T02:46:24.084Z,8.03
2022-09-25T02:51:44.252Z,8.20
2022-09-25T02:56:44.476Z,7.47
2022-09-25T03:01:40.530Z,8.43
2022-09-25T03:06:32.984Z,7.80
2022-09-25T03:11:29.730Z,7.97
2022-09-25T03:16:56.912Z,7.77
2022-09-25T03:21:50.100Z,8.13
2022-09-25T03:26:42.947Z,10.30
2022-09-25T03:31:35.513Z,8.07
2022-09-25T03:36:30.039Z,7.93
2022-09-25T03:41:23.099Z,7.90
2022-09-25T03:46:15.873Z,7.77
2022-09-25T03:51:09.422Z,6.83
2022-09-25T03:56:03.249Z,6.80
2022-09-25T04:00:57.908Z,6.97
2022-09-25T04:05:50.842Z,6.97
2022-09-25T04:10:43.031Z,6.97
2022-09-25T04:15:35.512Z,7.33
2022-09-25T04:20:27.726Z,7.03
2022-09-25T04:25:24.446Z,7.80
2022-09-25T04:30:16.856Z,7.07
2022-09-25T04:35:09.247Z,7.10
2022-09-25T04:40:01.562Z,6.77
2022-09-25T04:44:55.451Z,7.53
2022-09-25T04:49:48.246Z,7.67
2022-09-25T04:54:40.852Z,8.80
2022-09-25T04:59:33.271Z,8.60
2022-09-25T05:04:25.569Z,9.47
2022-09-25T05:09:18.099Z,10.57
2022-09-25T05:14:10.310Z,8.73
2022-09-25T05:19:02.546Z,8.50
2022-09-25T05:23:57.003Z,8.70
2022-09-25T05:28:52.222Z,12.57
2022-09-25T05:33:44.574Z,10.47
2022-09-25T05:38:38.825Z,8.73
2022-09-25T05:43:31.920Z,7.43
2022-09-25T05:48:24.578Z,7.20
2022-09-25T05:53:16.777Z,6.70
2022-09-25T05:58:08.954Z,6.63
2022-09-25T06:03:01.965Z,6.97
2022-09-25T06:07:55.569Z,6.70
2022-09-25T06:12:49.099Z,5.83
2022-09-25T06:17:41.392Z,7.10
2022-09-25T06:22:33.605Z,6.77
2022-09-25T06:27:25.860Z,6.70
2022-09-25T06:32:18.076Z,6.97
2022-09-25T06:37:10.331Z,6.57
2022-09-25T06:42:02.552Z,6.77
2022-09-25T06:46:55.631Z,6.43
2022-09-25T06:51:47.878Z,6.63
2022-09-25T06:56:40.066Z,6.20
2022-09-25T07:01:32.422Z,6.50
2022-09-25T07:06:31.592Z,7.17
2022-09-25T07:11:28.386Z,7.60
2022-09-25T07:16:22.883Z,6.57
2022-09-25T07:21:18.645Z,6.47
2022-09-25T07:26:13.326Z,6.47
2022-09-25T07:31:39.456Z,6.70
2022-09-25T07:36:32.726Z,6.50
2022-09-25T07:41:25.255Z,6.13
2022-09-25T07:46:17.638Z,7.47
2022-09-25T07:51:12.074Z,6.23
2022-09-25T07:56:06.993Z,5.47
2022-09-25T08:01:02.261Z,6.70
2022-09-25T08:06:20.791Z,6.63
2022-09-25T08:11:15.539Z,6.50
2022-09-25T08:16:18.961Z,6.47
2022-09-25T08:21:14.449Z,6.80
2022-09-25T08:26:07.922Z,6.10
2022-09-25T08:31:02.096Z,6.80
2022-09-25T08:36:00.373Z,6.27
2022-09-25T08:40:58.727Z,7.57
2022-09-25T08:46:10.370Z,6.83
2022-09-25T08:51:08.726Z,6.30
2022-09-25T08:56:15.315Z,7.30
2022-09-25T09:01:13.256Z,8.00
2022-09-25T09:06:12.641Z,6.80
2022-09-25T09:11:35.510Z,6.93
2022-09-25T09:16:37.462Z,7.33
2022-09-25T09:21:44.673Z,7.43
2022-09-25T09:27:00.179Z,6.80
2022-09-25T09:32:14.341Z,6.90
2022-09-25T09:37:06.868Z,6.07
2022-09-25T09:42:09.355Z,5.57
2022-09-25T09:47:32.617Z,5.88
2022-09-25T09:52:33.682Z,5.05
2022-09-25T09:58:22.111Z,5.65
2022-09-25T10:04:28.971Z,5.57
2022-09-25T10:10:37.153Z,5.50
2022-09-25T10:16:43.888Z,5.68
2022-09-25T10:22:51.467Z,4.15
2022-09-25T10:29:00.055Z,3.53
2022-09-25T10:35:07.196Z,3.67
2022-09-25T10:41:14.457Z,3.95
2022-09-25T10:47:23.198Z,3.30
2022-09-25T10:53:31.690Z,3.13
2022-09-25T10:59:39.023Z,3.00
2022-09-25T11:05:45.846Z,3.00
2022-09-25T11:11:53.189Z,2.67
2022-09-25T11:18:00.558Z,2.92
2022-09-25T11:24:07.913Z,3.20
2022-09-25T11:30:15.000Z,3.60
2022-09-25T11:36:22.224Z,5.55
2022-09-25T11:42:29.312Z,3.20
2022-09-25T11:48:36.688Z,3.70
2022-09-25T11:54:37.762Z,5.10
2022-09-25T11:59:42.288Z,4.67
2022-09-25T12:05:06.520Z,4.93
2022-09-25T12:10:32.127Z,4.40
2022-09-25T12:15:32.841Z,4.77
2022-09-25T12:21:02.900Z,4.63
2022-09-25T12:26:30.536Z,3.90
2022-09-25T12:31:45.181Z,4.13
2022-09-25T12:36:47.903Z,4.30
2022-09-25T12:41:52.110Z,5.90
2022-09-25T12:46:48.258Z,4.60
2022-09-25T12:51:55.168Z,4.57
2022-09-25T12:57:04.804Z,4.57
2022-09-25T13:02:07.596Z,4.17
2022-09-25T13:07:21.468Z,4.07
2022-09-25T13:12:21.504Z,4.70
2022-09-25T13:22:21.525Z,3.93
2022-09-25T13:27:22.540Z,3.97
2022-09-25T13:32:23.727Z,3.83
2022-09-25T13:37:17.315Z,3.60
2022-09-25T13:42:40.200Z,3.43
2022-09-25T13:48:29.473Z,3.20
2022-09-25T13:54:37.009Z,5.77
2022-09-25T14:00:24.119Z,3.60
2022-09-25T14:06:38.867Z,3.97
2022-09-25T14:12:49.962Z,3.87
2022-09-25T14:18:57.692Z,4.33
2022-09-25T14:25:06.356Z,3.10
2022-09-25T14:31:13.311Z,3.60
2022-09-25T14:37:24.571Z,3.63
2022-09-25T14:43:36.004Z,3.80
2022-09-25T14:49:44.032Z,3.70
2022-09-25T14:55:51.324Z,3.63
2022-09-25T15:01:58.892Z,3.40
2022-09-25T15:08:05.683Z,3.37
2022-09-25T15:14:13.564Z,2.97
2022-09-25T15:20:20.525Z,3.27
2022-09-25T15:26:29.297Z,2.87
2022-09-25T15:32:36.476Z,3.43
2022-09-25T15:38:44.252Z,3.03
2022-09-25T15:44:45.197Z,2.97
2022-09-25T15:49:52.448Z,3.10
2022-09-25T15:54:46.713Z,3.07
2022-09-25T16:00:04.258Z,3.10
2022-09-25T16:04:56.787Z,3.50
2022-09-25T16:09:49.843Z,3.43
2022-09-25T16:14:45.735Z,3.10
2022-09-25T16:19:41.183Z,3.03
2022-09-25T16:24:34.450Z,3.20
2022-09-25T16:29:40.637Z,3.43
2022-09-25T16:34:39.603Z,2.97
2022-09-25T16:39:36.574Z,3.20
2022-09-25T16:44:37.915Z,3.87
2022-09-25T16:49:34.149Z,2.67
2022-09-25T16:54:33.619Z,3.33
2022-09-25T16:59:29.541Z,4.00
2022-09-25T17:04:27.986Z,6.03
2022-09-25T17:09:20.998Z,6.53
2022-09-25T17:14:33.805Z,23.87
2022-09-25T17:19:27.167Z,22.57
2022-09-25T17:24:26.690Z,50.20
2022-09-25T17:29:23.155Z,30.50
2022-09-25T17:34:29.002Z,12.10
2022-09-25T17:39:22.283Z,7.37
2022-09-25T17:44:21.920Z,5.07
2022-09-25T17:49:14.858Z,3.43
2022-09-25T17:54:12.157Z,3.90
2022-09-25T17:59:05.588Z,5.90
2022-09-25T18:04:01.594Z,14.20
2022-09-25T18:08:56.033Z,7.90
2022-09-25T18:13:52.421Z,8.83
2022-09-25T18:19:06.882Z,9.60
2022-09-25T18:24:04.736Z,7.67
2022-09-25T18:29:00.713Z,4.47
2022-09-25T18:33:58.352Z,4.53
2022-09-25T18:38:51.085Z,5.93
2022-09-25T18:43:58.106Z,5.60
2022-09-25T18:48:59.641Z,36.50
2022-09-25T18:53:53.124Z,14.80
2022-09-25T18:58:46.113Z,11.13
2022-09-25T19:03:40.985Z,11.27
2022-09-25T19:08:34.226Z,10.53
2022-09-25T19:13:32.947Z,15.00
2022-09-25T19:18:25.891Z,9.60
2022-09-25T19:23:22.552Z,5.87
2022-09-25T19:28:15.063Z,7.63
2022-09-25T19:33:07.670Z,9.33
2022-09-25T19:38:56.224Z,7.27
2022-09-25T19:45:04.899Z,7.87
2022-09-25T19:51:13.047Z,8.77
2022-09-25T19:57:21.197Z,8.50
2022-09-25T20:03:28.282Z,9.97
2022-09-25T20:09:54.435Z,10.70
2022-09-25T20:16:03.357Z,12.20
2022-09-25T20:22:09.956Z,9.30
2022-09-25T20:28:17.545Z,9.80
2022-09-25T20:34:24.957Z,7.80
2022-09-25T20:40:32.354Z,8.20
2022-09-25T20:46:39.631Z,9.20
2022-09-25T20:52:47.096Z,49.13
2022-09-25T20:58:54.123Z,23.37
2022-09-25T21:05:02.319Z,20.00
2022-09-25T21:11:10.342Z,11.50
2022-09-25T21:17:17.599Z,9.90
2022-09-25T21:23:24.820Z,9.73
2022-09-25T21:29:33.303Z,11.17
2022-09-25T21:34:44.103Z,15.50
2022-09-25T21:39:36.417Z,14.43
2022-09-25T21:44:28.829Z,11.80
2022-09-25T21:49:22.122Z,11.93
2022-09-25T21:54:15.391Z,12.33
2022-09-25T21:59:09.304Z,11.70
2022-09-25T22:04:03.655Z,9.97
2022-09-25T22:09:11.737Z,10.70
2022-09-25T22:14:04.937Z,11.60
2022-09-25T22:19:23.254Z,12.93
2022-09-25T22:24:16.382Z,11.37
2022-09-25T22:29:09.985Z,10.63
2022-09-25T22:34:06.359Z,10.37
2022-09-25T22:38:58.757Z,9.93
2022-09-25T22:43:53.056Z,9.20
2022-09-25T22:48:45.573Z,10.77
2022-09-25T22:53:38.683Z,9.37
2022-09-25T22:58:30.884Z,9.73
2022-09-25T23:03:24.855Z,10.13
2022-09-25T23:08:17.400Z,9.93
2022-09-25T23:13:09.656Z,8.83
2022-09-25T23:18:01.963Z,9.70
2022-09-25T23:22:55.703Z,9.43
2022-09-25T23:27:48.041Z,9.83
2022-09-25T23:32:40.270Z,10.20
2022-09-25T23:37:32.443Z,9.67
2022-09-25T23:42:24.829Z,9.27
2022-09-25T23:47:17.420Z,9.87
2022-09-25T23:52:09.595Z,10.57
2022-09-25T23:57:01.743Z,10.97
